createdAt,value
2022-09-21T00:20:32.417Z,0.90
2022-09-21T00:30:52.763Z,1.02
2022-09-21T00:41:01.997Z,0.90
2022-09-21T00:51:11.540Z,0.80
2022-09-21T01:13:01.242Z,1.10
2022-09-21T01:24:01.195Z,0.90
2022-09-21T01:34:33.013Z,0.82
2022-09-21T01:44:45.012Z,0.90
2022-09-21T01:54:57.766Z,1.00
2022-09-21T02:05:11.496Z,1.13
2022-09-21T02:15:25.739Z,1.00
2022-09-21T02:25:52.563Z,1.20
2022-09-21T02:36:16.872Z,1.00
2022-09-21T02:46:34.834Z,1.27
2022-09-21T02:56:55.145Z,1.30
2022-09-21T03:07:02.797Z,1.42
2022-09-21T03:17:18.836Z,1.60
2022-09-21T03:27:29.471Z,1.63
2022-09-21T03:37:41.288Z,1.35
2022-09-21T03:47:57.544Z,1.10
2022-09-21T03:58:10.258Z,1.50
2022-09-21T04:08:32.379Z,1.35
2022-09-21T04:18:42.013Z,1.20
2022-09-21T04:28:53.521Z,1.10
2022-09-21T04:39:25.638Z,1.30
2022-09-21T04:49:37.904Z,1.05
2022-09-21T05:00:05.000Z,1.10
2022-09-21T05:10:21.011Z,1.10
2022-09-21T05:20:33.291Z,1.10
2022-09-21T05:31:07.201Z,1.10
2022-09-21T05:41:54.735Z,1.23
2022-09-21T06:04:14.668Z,1.13
2022-09-21T06:14:42.872Z,1.20
2022-09-21T06:24:55.225Z,1.27
2022-09-21T06:35:06.427Z,1.20
2022-09-21T06:45:36.162Z,1.10
2022-09-21T06:55:56.824Z,1.15
2022-09-21T07:06:22.844Z,1.10
2022-09-21T07:16:45.119Z,1.20
2022-09-21T07:27:28.535Z,1.10
2022-09-21T07:37:52.111Z,1.20
2022-09-21T07:48:07.390Z,1.10
2022-09-21T07:58:44.675Z,1.20
2022-09-21T08:09:49.860Z,1.20
2022-09-21T08:20:50.807Z,0.93
2022-09-21T08:31:06.384Z,1.20
2022-09-21T08:41:27.323Z,1.00
2022-09-21T09:04:20.274Z,1.20
2022-09-21T09:15:28.067Z,1.30
2022-09-21T09:26:56.583Z,1.00
2022-09-21T09:37:51.534Z,1.20
2022-09-21T09:48:39.984Z,1.30
2022-09-21T09:59:53.984Z,1.33
2022-09-21T10:10:53.699Z,1.20
2022-09-21T10:21:14.123Z,1.50
2022-09-21T10:32:28.464Z,1.42
2022-09-21T10:54:33.546Z,1.50
2022-09-21T11:05:07.652Z,1.48
2022-09-21T11:15:45.151Z,1.30
2022-09-21T11:26:13.929Z,1.48
2022-09-21T11:36:48.945Z,1.15
2022-09-21T11:47:25.852Z,1.10
2022-09-21T11:57:45.221Z,1.50
2022-09-21T12:08:37.883Z,1.25
2022-09-21T12:19:28.400Z,1.45
2022-09-21T12:29:55.308Z,1.30
2022-09-21T12:40:23.920Z,1.40
2022-09-21T12:50:42.952Z,1.60
2022-09-21T13:01:26.996Z,1.13
2022-09-21T13:12:02.263Z,1.45
2022-09-21T13:22:25.441Z,1.40
2022-09-21T13:33:03.597Z,1.25
2022-09-21T13:43:52.078Z,1.50
2022-09-21T13:54:05.372Z,1.33
2022-09-21T14:04:30.867Z,1.13
2022-09-21T14:14:47.160Z,1.40
2022-09-21T14:25:14.644Z,1.30
2022-09-21T14:35:55.382Z,1.50
2022-09-21T14:46:34.608Z,1.30
2022-09-21T14:56:56.348Z,1.48
2022-09-21T15:07:36.262Z,1.50
2022-09-21T15:17:59.331Z,1.63
2022-09-21T15:28:07.324Z,1.65
2022-09-21T15:48:45.425Z,2.30
2022-09-21T15:58:54.306Z,2.25
2022-09-21T16:09:23.997Z,3.03
2022-09-21T16:19:45.630Z,4.97
2022-09-21T16:29:59.840Z,3.78
2022-09-21T16:40:12.376Z,3.28
2022-09-21T16:50:25.274Z,3.13
2022-09-21T17:00:42.442Z,3.05
2022-09-21T17:10:53.348Z,2.55
2022-09-21T17:21:05.345Z,2.67
2022-09-21T17:31:17.599Z,2.75
2022-09-21T17:41:41.349Z,2.40
2022-09-21T17:52:07.310Z,2.40
2022-09-21T18:02:27.340Z,2.25
2022-09-21T18:12:53.926Z,1.70
2022-09-21T18:23:17.919Z,2.08
2022-09-21T18:33:36.832Z,1.63
2022-09-21T18:44:01.651Z,1.80
2022-09-21T18:54:23.350Z,1.73
2022-09-21T19:04:31.481Z,1.65
2022-09-21T19:14:58.758Z,1.60
2022-09-21T19:25:21.428Z,1.40
2022-09-21T19:35:34.916Z,1.40
2022-09-21T19:45:51.710Z,1.65
2022-09-21T19:56:20.984Z,1.40
2022-09-21T20:06:35.231Z,1.30
2022-09-21T20:16:50.056Z,1.30
2022-09-21T20:26:58.474Z,1.40
2022-09-21T20:37:12.699Z,1.52
2022-09-21T20:47:21.029Z,1.20
2022-09-21T20:57:30.020Z,1.35
2022-09-21T21:07:58.972Z,1.48
2022-09-21T21:18:08.371Z,1.45
2022-09-21T21:28:16.198Z,1.35
2022-09-21T21:38:24.947Z,1.50
2022-09-21T21:48:31.980Z,1.60
2022-09-21T21:58:41.322Z,1.50
2022-09-21T22:08:48.441Z,1.33
2022-09-21T22:18:58.746Z,1.35
2022-09-21T22:29:08.735Z,1.10
2022-09-21T22:39:17.757Z,1.30
2022-09-21T22:49:25.487Z,1.40
2022-09-21T22:59:34.386Z,1.42
2022-09-21T23:09:41.612Z,1.60
2022-09-21T23:19:50.996Z,1.90
2022-09-21T23:29:58.611Z,1.90
2022-09-21T23:40:07.954Z,1.63
2022-09-21T23:50:15.559Z,1.80
